createdAt,value
2023-09-12T00:00:29.373Z,71.25
2023-09-12T00:02:57.275Z,71.39
2023-09-12T00:05:26.537Z,71.56
2023-09-12T00:07:54.882Z,71.59
2023-09-12T00:10:22.854Z,71.64
2023-09-12T00:12:50.675Z,71.62
2023-09-12T00:15:20.870Z,71.78
2023-09-12T00:17:49.726Z,71.94
2023-09-12T00:20:17.850Z,71.89
2023-09-12T00:22:47.712Z,71.98
2023-09-12T00:25:15.547Z,72.37
2023-09-12T00:27:43.371Z,72.35
2023-09-12T00:30:12.371Z,72.38
2023-09-12T00:32:40.333Z,72.58
2023-09-12T00:35:09.101Z,72.57
2023-09-12T00:37:36.874Z,72.69
2023-09-12T00:40:07.384Z,72.75
2023-09-12T00:42:35.233Z,72.75
2023-09-12T00:45:03.254Z,72.88
2023-09-12T00:47:32.668Z,72.98
2023-09-12T00:50:02.223Z,73.07
2023-09-12T00:52:31.570Z,73.23
2023-09-12T00:54:59.825Z,73.36
2023-09-12T00:57:29.119Z,73.26
2023-09-12T00:59:57.964Z,73.38
2023-09-12T01:02:27.063Z,73.48
2023-09-12T01:04:55.269Z,73.65
2023-09-12T01:07:23.131Z,73.79
2023-09-12T01:09:50.985Z,73.91
2023-09-12T01:12:19.060Z,73.92
2023-09-12T01:14:48.353Z,73.81
2023-09-12T01:17:16.241Z,74.05
2023-09-12T01:19:44.106Z,74.14
2023-09-12T01:22:29.572Z,74.13
2023-09-12T01:25:16.203Z,74.37
2023-09-12T01:27:48.219Z,74.19
2023-09-12T01:30:20.251Z,74.30
2023-09-12T01:32:49.182Z,74.40
2023-09-12T01:35:17.157Z,74.59
2023-09-12T01:37:44.966Z,74.59
2023-09-12T01:40:14.176Z,74.60
2023-09-12T01:42:47.000Z,74.87
2023-09-12T01:45:19.849Z,74.90
2023-09-12T01:47:51.809Z,75.09
2023-09-12T01:50:21.227Z,74.99
2023-09-12T01:52:50.972Z,74.91
2023-09-12T01:55:19.950Z,75.02
2023-09-12T01:57:50.903Z,75.22
2023-09-12T02:00:20.280Z,75.27
2023-09-12T02:02:48.258Z,75.30
2023-09-12T02:05:19.805Z,75.20
2023-09-12T02:07:48.552Z,75.57
2023-09-12T02:10:17.038Z,75.64
2023-09-12T02:12:45.378Z,75.44
2023-09-12T02:15:15.008Z,75.58
2023-09-12T02:17:42.964Z,75.50
2023-09-12T02:20:12.480Z,75.81
2023-09-12T02:22:40.339Z,75.71
2023-09-12T02:25:09.588Z,75.79
2023-09-12T02:27:37.599Z,76.16
2023-09-12T02:30:06.767Z,75.86
2023-09-12T02:32:36.049Z,76.03
2023-09-12T02:35:03.967Z,76.00
2023-09-12T02:37:31.905Z,76.08
2023-09-12T02:39:59.732Z,76.32
2023-09-12T02:42:27.635Z,76.33
2023-09-12T02:44:55.523Z,76.48
2023-09-12T02:47:23.330Z,76.53
2023-09-12T02:49:53.171Z,76.70
2023-09-12T02:52:21.063Z,76.79
2023-09-12T02:54:49.725Z,76.66
2023-09-12T02:57:17.854Z,76.74
2023-09-12T02:59:46.988Z,76.78
2023-09-12T03:02:15.426Z,76.88
2023-09-12T03:04:43.371Z,76.98
2023-09-12T03:07:12.594Z,76.96
2023-09-12T03:09:41.165Z,76.79
2023-09-12T03:12:09.340Z,76.96
2023-09-12T03:14:37.219Z,77.13
2023-09-12T03:17:05.537Z,77.27
2023-09-12T03:19:34.729Z,77.29
2023-09-12T03:22:02.571Z,77.54
2023-09-12T03:24:32.284Z,77.38
2023-09-12T03:27:00.233Z,77.31
2023-09-12T03:29:28.180Z,77.42
2023-09-12T03:31:56.115Z,77.56
2023-09-12T03:34:23.985Z,77.79
2023-09-12T03:36:51.885Z,77.71
2023-09-12T03:39:19.712Z,77.67
2023-09-12T03:41:48.860Z,77.69
2023-09-12T03:44:17.024Z,77.63
2023-09-12T03:46:45.052Z,78.13
2023-09-12T03:49:13.847Z,77.85
2023-09-12T03:51:41.951Z,78.07
2023-09-12T03:54:09.991Z,78.18
2023-09-12T03:56:37.914Z,78.22
2023-09-12T03:59:08.015Z,78.11
2023-09-12T04:01:36.301Z,78.36
2023-09-12T04:04:04.838Z,78.08
2023-09-12T04:06:32.969Z,78.11
2023-09-12T04:09:00.879Z,78.34
2023-09-12T04:11:43.667Z,78.35
2023-09-12T04:14:16.748Z,78.40
2023-09-12T04:16:44.833Z,78.51
2023-09-12T04:19:12.756Z,78.44
2023-09-12T04:21:40.752Z,78.68
2023-09-12T04:24:09.901Z,78.80
2023-09-12T04:26:37.788Z,78.78
2023-09-12T04:29:06.142Z,78.86
2023-09-12T04:31:35.429Z,78.82
2023-09-12T04:34:03.332Z,78.89
2023-09-12T04:36:31.228Z,79.07
2023-09-12T04:38:59.130Z,78.85
2023-09-12T04:41:26.988Z,79.04
2023-09-12T04:43:54.879Z,79.15
2023-09-12T04:46:22.749Z,79.27
2023-09-12T04:48:52.215Z,79.03
2023-09-12T04:51:20.055Z,79.50
2023-09-12T04:53:52.578Z,79.32
2023-09-12T04:56:20.755Z,79.42
2023-09-12T04:58:49.314Z,79.67
2023-09-12T05:01:17.487Z,79.67
2023-09-12T05:03:45.486Z,79.27
2023-09-12T05:06:15.422Z,79.76
2023-09-12T05:08:43.559Z,79.59
2023-09-12T05:11:11.632Z,79.71
2023-09-12T05:13:40.725Z,79.76
2023-09-12T05:16:08.644Z,79.79
2023-09-12T05:18:36.534Z,79.87
2023-09-12T05:21:04.875Z,80.13
2023-09-12T05:23:34.253Z,79.97
2023-09-12T05:26:02.127Z,80.06
2023-09-12T05:28:29.986Z,80.09
2023-09-12T05:30:58.135Z,80.13
2023-09-12T05:33:26.068Z,80.21
2023-09-12T05:35:54.394Z,80.23
2023-09-12T05:38:22.220Z,80.30
2023-09-12T05:40:51.990Z,80.09
2023-09-12T05:43:20.291Z,80.40
2023-09-12T05:45:48.729Z,80.41
2023-09-12T05:48:16.845Z,80.47
2023-09-12T05:50:45.596Z,80.56
2023-09-12T05:53:13.439Z,80.54
2023-09-12T05:55:41.256Z,80.73
2023-09-12T05:58:10.488Z,80.65
2023-09-12T06:00:38.630Z,80.68
2023-09-12T06:03:06.725Z,80.73
2023-09-12T06:05:34.701Z,80.64
2023-09-12T06:08:02.588Z,80.94
2023-09-12T06:10:30.422Z,80.96
2023-09-12T06:12:58.275Z,80.97
2023-09-12T06:15:27.513Z,81.12
2023-09-12T06:17:56.162Z,81.14
2023-09-12T06:20:24.414Z,81.16
2023-09-12T06:22:52.598Z,81.25
2023-09-12T06:25:20.547Z,81.28
2023-09-12T06:27:48.550Z,81.34
2023-09-12T06:30:16.584Z,81.38
2023-09-12T06:32:45.920Z,81.21
2023-09-12T06:35:13.902Z,81.27
2023-09-12T06:37:41.739Z,81.44
2023-09-12T06:40:10.421Z,81.38
2023-09-12T06:42:38.293Z,81.69
2023-09-12T06:45:06.885Z,81.65
2023-09-12T06:47:34.803Z,81.50
2023-09-12T06:50:04.963Z,81.67
2023-09-12T06:52:34.977Z,81.73
2023-09-12T06:55:02.797Z,81.65
2023-09-12T06:57:31.233Z,81.61
2023-09-12T06:59:59.085Z,81.64
2023-09-12T07:02:28.654Z,81.77
2023-09-12T07:04:57.963Z,81.72
2023-09-12T07:07:27.127Z,81.82
2023-09-12T07:10:01.674Z,81.85
2023-09-12T07:12:36.047Z,81.68
2023-09-12T07:15:04.202Z,81.94
2023-09-12T07:17:32.074Z,81.89
2023-09-12T07:20:00.071Z,81.82
2023-09-12T07:22:29.485Z,81.82
2023-09-12T07:24:57.364Z,81.83
2023-09-12T07:27:25.308Z,81.98
2023-09-12T07:29:53.119Z,82.02
2023-09-12T07:32:22.557Z,82.05
2023-09-12T07:34:50.629Z,81.92
2023-09-12T07:37:18.440Z,81.99
2023-09-12T07:39:47.635Z,81.95
2023-09-12T07:42:15.534Z,81.88
2023-09-12T07:44:43.397Z,82.13
2023-09-12T07:47:11.276Z,82.05
2023-09-12T07:49:39.107Z,81.91
2023-09-12T07:52:07.876Z,82.09
2023-09-12T07:54:35.914Z,82.15
2023-09-12T07:57:05.653Z,82.12
2023-09-12T07:59:33.438Z,82.17
2023-09-12T08:02:01.381Z,82.06
2023-09-12T08:04:29.350Z,81.76
2023-09-12T08:06:58.823Z,82.02
2023-09-12T08:09:52.609Z,81.69
2023-09-12T08:12:23.301Z,82.08
2023-09-12T08:14:51.135Z,81.78
2023-09-12T08:17:19.495Z,81.86
2023-09-12T08:19:47.715Z,82.10
2023-09-12T08:22:15.797Z,81.83
2023-09-12T08:24:43.680Z,82.16
2023-09-12T08:27:11.531Z,81.65
2023-09-12T08:29:40.776Z,81.97
2023-09-12T08:32:08.637Z,81.69
2023-09-12T08:34:36.541Z,82.14
2023-09-12T08:37:04.433Z,81.84
2023-09-12T08:39:44.706Z,81.83
2023-09-12T08:42:15.642Z,81.88
2023-09-12T08:44:45.731Z,82.01
2023-09-12T08:47:14.129Z,81.46
2023-09-12T08:49:43.560Z,81.81
2023-09-12T08:52:12.543Z,81.90
2023-09-12T08:54:40.595Z,81.56
2023-09-12T08:57:09.451Z,81.52
2023-09-12T08:59:37.948Z,81.42
2023-09-12T09:02:10.896Z,81.78
2023-09-12T09:04:41.956Z,81.17
2023-09-12T09:07:11.879Z,81.35
2023-09-12T09:09:40.356Z,81.45
2023-09-12T09:12:09.769Z,81.26
2023-09-12T09:14:37.586Z,80.97
2023-09-12T09:17:10.633Z,81.44
2023-09-12T09:19:44.050Z,81.11
2023-09-12T09:22:11.984Z,81.11
2023-09-12T09:24:39.985Z,80.75
2023-09-12T09:27:07.915Z,80.79
2023-09-12T09:29:49.085Z,80.98
2023-09-12T09:32:23.230Z,80.62
2023-09-12T09:34:51.528Z,80.76
2023-09-12T09:37:20.824Z,80.50
2023-09-12T09:39:53.301Z,80.56
2023-09-12T09:42:21.864Z,80.58
2023-09-12T09:44:50.654Z,80.61
2023-09-12T09:47:21.948Z,80.63
2023-09-12T09:49:50.075Z,80.23
2023-09-12T09:52:17.968Z,80.39
2023-09-12T09:54:47.041Z,80.21
2023-09-12T09:57:14.944Z,80.21
2023-09-12T09:59:43.802Z,80.19
2023-09-12T10:02:22.482Z,80.14
2023-09-12T10:07:27.343Z,79.73
2023-09-12T10:09:55.770Z,79.84
2023-09-12T10:12:25.091Z,79.63
2023-09-12T10:14:53.710Z,79.55
2023-09-12T10:17:25.676Z,79.46
2023-09-12T10:19:58.178Z,79.44
2023-09-12T10:22:30.190Z,79.46
2023-09-12T10:24:58.603Z,79.38
2023-09-12T10:27:27.194Z,79.03
2023-09-12T10:29:55.276Z,79.30
2023-09-12T10:32:23.933Z,79.17
2023-09-12T10:34:54.077Z,79.08
2023-09-12T10:37:26.942Z,78.97
2023-09-12T10:39:55.515Z,78.85
2023-09-12T10:42:25.702Z,78.75
2023-09-12T10:44:54.060Z,78.66
2023-09-12T10:47:22.685Z,78.64
2023-09-12T10:49:50.815Z,78.78
2023-09-12T10:52:27.972Z,78.29
2023-09-12T10:54:56.451Z,78.37
2023-09-12T10:57:24.504Z,78.21
2023-09-12T11:00:13.064Z,78.24
2023-09-12T11:02:43.152Z,78.05
2023-09-12T11:05:38.703Z,77.91
2023-09-12T11:08:08.018Z,77.80
2023-09-12T11:10:35.927Z,77.98
2023-09-12T11:13:04.683Z,77.36
2023-09-12T11:15:33.080Z,77.49
2023-09-12T11:18:06.147Z,77.53
2023-09-12T11:20:55.111Z,76.98
2023-09-12T11:23:24.407Z,76.99
2023-09-12T11:26:06.116Z,76.70
2023-09-12T11:28:34.233Z,76.64
2023-09-12T11:31:02.445Z,76.69
2023-09-12T11:33:30.735Z,76.66
2023-09-12T11:36:03.027Z,76.17
2023-09-12T11:38:33.397Z,76.26
2023-09-12T11:41:01.954Z,76.47
2023-09-12T11:43:30.560Z,75.83
2023-09-12T11:45:59.408Z,75.82
2023-09-12T11:48:27.670Z,75.94
2023-09-12T11:50:57.161Z,75.64
2023-09-12T11:53:27.812Z,75.58
2023-09-12T11:55:59.696Z,75.77
2023-09-12T11:58:28.700Z,75.66
2023-09-12T12:00:57.951Z,75.60
2023-09-12T12:03:27.595Z,74.93
2023-09-12T12:05:57.597Z,75.15
2023-09-12T12:08:32.070Z,75.24
2023-09-12T12:11:02.311Z,74.67
2023-09-12T12:13:30.798Z,74.82
2023-09-12T12:15:59.053Z,74.66
2023-09-12T12:18:27.561Z,74.65
2023-09-12T12:20:55.892Z,74.44
2023-09-12T12:23:24.038Z,73.93
2023-09-12T12:25:51.870Z,74.36
2023-09-12T12:28:22.205Z,73.88
2023-09-12T12:30:55.859Z,73.89
2023-09-12T12:34:20.436Z,73.55
2023-09-12T12:36:11.928Z,73.62
2023-09-12T12:38:53.387Z,73.64
2023-09-12T12:41:30.963Z,73.33
2023-09-12T12:44:04.606Z,72.90
2023-09-12T12:46:32.840Z,73.21
2023-09-12T12:49:00.723Z,73.01
2023-09-12T12:51:31.085Z,72.83
2023-09-12T12:54:06.696Z,72.81
2023-09-12T12:56:34.708Z,72.20
2023-09-12T12:59:07.824Z,72.40
2023-09-12T13:01:37.493Z,71.86
2023-09-12T13:04:07.322Z,72.11
2023-09-12T13:06:37.054Z,71.95
2023-09-12T13:09:06.928Z,71.54
2023-09-12T13:11:35.848Z,71.19
2023-09-12T13:14:10.341Z,70.98
2023-09-12T13:16:38.404Z,71.00
2023-09-12T13:19:06.370Z,70.73
2023-09-12T13:21:34.429Z,71.05
2023-09-12T13:24:03.156Z,70.48
2023-09-12T13:26:32.093Z,70.19
2023-09-12T13:28:59.935Z,70.58
2023-09-12T13:31:29.104Z,70.29
2023-09-12T13:33:57.156Z,69.71
2023-09-12T13:36:25.530Z,69.76
2023-09-12T13:38:53.578Z,70.05
2023-09-12T13:41:23.290Z,69.61
2023-09-12T13:43:51.269Z,69.29
2023-09-12T13:46:19.337Z,69.64
2023-09-12T13:48:50.039Z,69.28
2023-09-12T13:51:18.159Z,69.28
2023-09-12T13:53:49.166Z,68.63
2023-09-12T13:56:17.011Z,68.69
2023-09-12T13:58:51.908Z,68.86
2023-09-12T14:01:33.165Z,68.41
2023-09-12T14:04:05.041Z,68.58
2023-09-12T14:06:35.832Z,68.17
2023-09-12T14:09:04.114Z,67.75
2023-09-12T14:11:35.582Z,68.14
2023-09-12T14:14:16.013Z,67.60
2023-09-12T14:16:48.113Z,67.24
2023-09-12T14:19:17.919Z,67.39
2023-09-12T14:21:47.117Z,67.21
2023-09-12T14:24:16.791Z,66.97
2023-09-12T14:26:46.027Z,66.86
2023-09-12T14:29:15.029Z,66.67
2023-09-12T14:31:51.252Z,66.70
2023-09-12T14:34:20.861Z,66.51
2023-09-12T14:36:48.963Z,66.25
2023-09-12T14:39:17.115Z,66.17
2023-09-12T14:41:50.845Z,66.16
2023-09-12T14:44:18.843Z,65.94
2023-09-12T14:46:46.815Z,66.02
2023-09-12T14:49:14.930Z,65.41
2023-09-12T14:51:44.285Z,65.78
2023-09-12T14:54:12.188Z,65.41
2023-09-12T14:56:40.038Z,65.32
2023-09-12T14:59:08.051Z,64.99
2023-09-12T15:01:36.573Z,65.27
2023-09-12T15:04:04.677Z,65.01
2023-09-12T15:06:34.512Z,64.86
2023-09-12T15:09:04.025Z,64.85
2023-09-12T15:11:32.385Z,64.83
2023-09-12T15:14:00.643Z,64.17
2023-09-12T15:16:28.624Z,64.08
2023-09-12T15:18:56.642Z,63.95
2023-09-12T15:21:24.529Z,63.85
2023-09-12T15:23:52.430Z,63.82
2023-09-12T15:26:21.744Z,64.13
2023-09-12T15:28:49.574Z,63.98
2023-09-12T15:31:17.420Z,63.54
2023-09-12T15:33:45.821Z,63.86
2023-09-12T15:36:14.011Z,63.92
2023-09-12T15:38:41.825Z,63.75
2023-09-12T15:41:09.881Z,63.40
2023-09-12T15:43:39.183Z,63.60
2023-09-12T15:46:07.245Z,63.57
2023-09-12T15:48:35.257Z,63.52
2023-09-12T15:51:05.378Z,63.04
2023-09-12T15:53:33.269Z,63.42
2023-09-12T15:56:01.111Z,63.12
2023-09-12T15:58:30.276Z,62.99
2023-09-12T16:01:01.121Z,63.24
2023-09-12T16:03:29.211Z,62.67
2023-09-12T16:05:57.121Z,62.73
2023-09-12T16:08:24.954Z,62.98
2023-09-12T16:10:53.049Z,63.04
2023-09-12T16:13:21.076Z,62.89
2023-09-12T16:15:48.910Z,62.66
2023-09-12T16:18:18.173Z,62.82
2023-09-12T16:20:46.030Z,62.69
2023-09-12T16:23:13.890Z,62.59
2023-09-12T16:25:41.702Z,62.69
2023-09-12T16:28:09.577Z,62.60
2023-09-12T16:30:38.830Z,62.38
2023-09-12T16:33:07.482Z,62.58
2023-09-12T16:35:36.721Z,62.50
2023-09-12T16:38:04.760Z,62.58
2023-09-12T16:40:33.468Z,62.58
2023-09-12T16:43:01.341Z,62.47
2023-09-12T16:45:29.240Z,62.39
2023-09-12T16:47:57.364Z,62.59
2023-09-12T16:50:26.995Z,62.60
2023-09-12T16:52:56.189Z,62.50
2023-09-12T16:55:24.012Z,62.39
2023-09-12T16:57:51.856Z,62.42
2023-09-12T17:00:19.871Z,62.47
2023-09-12T17:02:47.843Z,62.47
2023-09-12T17:05:15.843Z,62.40
2023-09-12T17:07:44.078Z,62.59
2023-09-12T17:10:13.252Z,62.66
2023-09-12T17:12:41.168Z,62.45
2023-09-12T17:15:12.758Z,62.85
2023-09-12T17:17:40.631Z,62.57
2023-09-12T17:20:09.216Z,62.60
2023-09-12T17:22:37.112Z,62.55
2023-09-12T17:25:05.353Z,62.55
2023-09-12T17:27:36.330Z,62.70
2023-09-12T17:30:06.413Z,62.64
2023-09-12T17:32:34.293Z,62.50
2023-09-12T17:35:03.930Z,62.75
2023-09-12T17:37:31.885Z,62.58
2023-09-12T17:39:59.742Z,62.67
2023-09-12T17:42:28.322Z,62.83
2023-09-12T17:44:57.546Z,62.54
2023-09-12T17:47:25.450Z,62.76
2023-09-12T17:49:57.401Z,62.85
2023-09-12T17:52:25.338Z,62.82
2023-09-12T17:54:53.239Z,62.77
2023-09-12T17:57:21.134Z,62.73
2023-09-12T17:59:49.599Z,62.85
2023-09-12T18:02:18.815Z,63.12
2023-09-12T18:04:46.688Z,63.03
2023-09-12T18:07:14.614Z,62.84
2023-09-12T18:09:42.429Z,62.66
2023-09-12T18:12:10.273Z,62.94
2023-09-12T18:14:38.118Z,62.95
2023-09-12T18:17:06.354Z,62.90
2023-09-12T18:19:36.480Z,63.24
2023-09-12T18:22:04.974Z,63.04
2023-09-12T18:24:33.079Z,63.03
2023-09-12T18:27:00.945Z,62.81
2023-09-12T18:29:28.795Z,63.35
2023-09-12T18:31:56.648Z,63.30
2023-09-12T18:34:24.430Z,63.07
2023-09-12T18:36:55.143Z,63.24
2023-09-12T18:39:23.016Z,63.22
2023-09-12T18:41:50.937Z,63.28
2023-09-12T18:44:18.779Z,63.01
2023-09-12T18:46:46.703Z,63.13
2023-09-12T18:49:14.626Z,63.21
2023-09-12T18:51:42.582Z,63.39
2023-09-12T18:54:19.677Z,63.42
2023-09-12T18:56:47.527Z,63.73
2023-09-12T18:59:15.387Z,63.54
2023-09-12T19:01:44.220Z,63.38
2023-09-12T19:04:25.382Z,63.71
2023-09-12T19:06:53.636Z,63.46
2023-09-12T19:09:23.224Z,63.96
2023-09-12T19:11:51.454Z,63.72
2023-09-12T19:14:19.320Z,63.92
2023-09-12T19:16:47.512Z,63.96
2023-09-12T19:19:15.421Z,64.11
2023-09-12T19:21:43.480Z,63.83
2023-09-12T19:24:12.010Z,64.02
2023-09-12T19:26:41.316Z,64.33
2023-09-12T19:29:09.184Z,64.42
2023-09-12T19:31:37.174Z,64.69
2023-09-12T19:34:06.385Z,64.53
2023-09-12T19:36:34.306Z,64.33
2023-09-12T19:39:02.788Z,64.60
2023-09-12T19:41:30.917Z,64.51
2023-09-12T19:44:00.271Z,64.60
2023-09-12T19:46:28.202Z,64.82
2023-09-12T19:48:56.240Z,65.18
2023-09-12T19:51:24.184Z,65.11
2023-09-12T19:53:52.301Z,65.14
2023-09-12T19:56:20.173Z,65.27
2023-09-12T19:58:47.989Z,65.17
2023-09-12T20:01:17.316Z,65.48
2023-09-12T20:03:45.430Z,65.42
2023-09-12T20:06:13.577Z,65.24
2023-09-12T20:08:41.428Z,65.58
2023-09-12T20:11:10.167Z,65.55
2023-09-12T20:13:38.017Z,65.59
2023-09-12T20:16:06.295Z,65.79
2023-09-12T20:18:35.623Z,65.65
2023-09-12T20:21:04.051Z,66.29
2023-09-12T20:23:31.890Z,66.36
2023-09-12T20:26:01.869Z,66.40
2023-09-12T20:28:30.289Z,66.50
2023-09-12T20:30:58.277Z,66.15
2023-09-12T20:33:26.159Z,66.48
2023-09-12T20:35:55.634Z,66.48
2023-09-12T20:38:23.820Z,66.88
2023-09-12T20:40:51.667Z,66.85
2023-09-12T20:43:19.552Z,66.86
2023-09-12T20:45:48.753Z,66.83
2023-09-12T20:48:18.951Z,67.12
2023-09-12T20:50:47.087Z,67.17
2023-09-12T20:53:17.905Z,67.19
2023-09-12T20:55:46.222Z,67.29
2023-09-12T20:58:14.342Z,67.42
2023-09-12T21:00:42.532Z,67.45
2023-09-12T21:03:10.680Z,67.68
2023-09-12T21:05:38.692Z,67.57
2023-09-12T21:08:06.676Z,67.45
2023-09-12T21:10:35.912Z,68.05
2023-09-12T21:13:03.850Z,67.74
2023-09-12T21:15:32.632Z,67.95
2023-09-12T21:18:00.671Z,68.08
2023-09-12T21:20:28.500Z,68.21
2023-09-12T21:22:56.453Z,68.40
2023-09-12T21:25:24.999Z,68.60
2023-09-12T21:27:54.221Z,68.43
2023-09-12T21:30:22.171Z,68.66
2023-09-12T21:32:50.072Z,68.92
2023-09-12T21:35:19.812Z,69.03
2023-09-12T21:37:48.995Z,68.95
2023-09-12T21:40:17.430Z,69.46
2023-09-12T21:42:45.749Z,69.50
2023-09-12T21:45:16.066Z,69.43
2023-09-12T21:47:45.145Z,69.59
2023-09-12T21:50:13.788Z,69.54
2023-09-12T21:52:42.101Z,69.78
2023-09-12T21:55:10.680Z,69.83
2023-09-12T21:57:38.726Z,70.00
2023-09-12T22:00:19.517Z,70.18
2023-09-12T22:06:36.198Z,70.48
2023-09-12T22:09:05.977Z,70.61
2023-09-12T22:11:33.998Z,70.77
2023-09-12T22:14:01.807Z,70.98
2023-09-12T22:16:29.743Z,71.02
2023-09-12T22:18:57.757Z,71.25
2023-09-12T22:21:25.659Z,71.26
2023-09-12T22:23:54.812Z,71.47
2023-09-12T22:26:22.657Z,71.67
2023-09-12T22:28:50.444Z,71.81
2023-09-12T22:31:18.366Z,71.89
2023-09-12T22:33:46.493Z,72.08
2023-09-12T22:36:19.383Z,72.21
2023-09-12T22:38:48.016Z,72.37
2023-09-12T22:41:17.526Z,72.67
2023-09-12T22:43:45.615Z,72.73
2023-09-12T22:46:13.758Z,72.97
2023-09-12T22:48:41.699Z,73.13
2023-09-12T22:51:09.606Z,73.38
2023-09-12T22:53:37.427Z,73.35
2023-09-12T22:56:05.482Z,73.65
2023-09-12T22:58:34.647Z,73.82
2023-09-12T23:01:03.840Z,74.04
2023-09-12T23:03:31.850Z,74.10
2023-09-12T23:06:01.666Z,74.37
2023-09-12T23:08:29.507Z,74.48
2023-09-12T23:10:57.318Z,74.47
2023-09-12T23:13:25.152Z,74.59
2023-09-12T23:15:54.775Z,74.87
2023-09-12T23:18:22.642Z,75.20
2023-09-12T23:20:50.469Z,75.21
2023-09-12T23:23:18.323Z,75.27
2023-09-12T23:25:46.106Z,75.53
2023-09-12T23:28:14.113Z,75.49
2023-09-12T23:30:42.661Z,75.64
2023-09-12T23:33:11.982Z,76.02
2023-09-12T23:35:43.326Z,76.11
2023-09-12T23:38:12.050Z,76.22
2023-09-12T23:40:39.847Z,76.44
2023-09-12T23:43:07.740Z,76.36
2023-09-12T23:45:35.629Z,76.67
2023-09-12T23:48:04.539Z,76.51
2023-09-12T23:50:34.038Z,76.84
2023-09-12T23:53:01.878Z,76.90
2023-09-12T23:55:29.769Z,77.07
2023-09-12T23:57:57.672Z,77.28
